createdAt,value
2019-04-10T00:03:37.657Z,13
2019-04-10T00:08:17.763Z,13
2019-04-10T00:13:24.723Z,12.8
2019-04-10T00:18:33.498Z,12.8
2019-04-10T00:23:41.268Z,12.9
2019-04-10T00:28:45.725Z,12.9
2019-04-10T00:33:54.573Z,13.1
2019-04-10T00:38:59.860Z,13.1
2019-04-10T00:44:07.751Z,13.2
2019-04-10T00:49:11.924Z,13.2
2019-04-10T00:54:19.222Z,13.3
2019-04-10T00:59:26.185Z,13.2
2019-04-10T01:04:32.651Z,13.1
2019-04-10T01:09:39.632Z,13
2019-04-10T01:14:47.646Z,12.9
2019-04-10T01:19:56.418Z,13
2019-04-10T01:24:54.398Z,13
2019-04-10T01:30:02.213Z,13
2019-04-10T01:35:10.963Z,13
2019-04-10T01:40:19.121Z,12.9
2019-04-10T01:45:29.008Z,12.8
2019-04-10T01:50:36.770Z,12.7
2019-04-10T02:00:50.538Z,12.6
2019-04-10T02:05:57.778Z,12.6
2019-04-10T02:11:04.805Z,12.6
2019-04-10T02:16:20.856Z,12.5
2019-04-10T02:21:21.820Z,12.5
2019-04-10T02:26:29.686Z,12.3
2019-04-10T02:31:39.037Z,12.2
2019-04-10T02:36:46.882Z,12
2019-04-10T02:41:56.159Z,11.9
2019-04-10T02:47:06.393Z,11.9
2019-04-10T02:52:16.621Z,11.8
2019-04-10T02:57:14.633Z,11.7
2019-04-10T03:02:24.251Z,11.6
2019-04-10T03:07:33.774Z,11.4
2019-04-10T03:12:44.082Z,11.4
2019-04-10T03:17:43.993Z,11.3
2019-04-10T03:22:51.268Z,11.3
2019-04-10T03:27:48.734Z,11.2
2019-04-10T03:33:11.359Z,11.2
2019-04-10T03:38:07.774Z,11.1
2019-04-10T03:43:07.593Z,11.1
2019-04-10T03:48:15.835Z,11
2019-04-10T03:53:24.599Z,11
2019-04-10T03:58:31.500Z,11
2019-04-10T04:03:38.973Z,10.9
2019-04-10T04:08:47.875Z,11
2019-04-10T04:13:47.794Z,11
2019-04-10T04:18:55.165Z,11
2019-04-10T04:24:03.385Z,11.2
2019-04-10T04:29:10.716Z,11.3
2019-04-10T04:34:16.046Z,11.2
2019-04-10T04:39:31.506Z,11.5
2019-04-10T04:44:31.087Z,11.6
2019-04-10T04:49:39.774Z,11.7
2019-04-10T04:54:47.443Z,11.7
2019-04-10T04:59:53.703Z,11.8
2019-04-10T05:05:02.428Z,11.8
2019-04-10T05:10:11.096Z,11.9
2019-04-10T05:15:18.412Z,12
2019-04-10T05:20:39.128Z,12.1
2019-04-10T05:25:35.961Z,12.4
2019-04-10T05:30:44.254Z,12.4
2019-04-10T05:35:52.587Z,12.5
2019-04-10T05:41:01.245Z,12.7
2019-04-10T05:46:07.121Z,12.7
2019-04-10T05:51:19.153Z,13
2019-04-10T05:56:15.817Z,13
2019-04-10T06:01:41.743Z,13.2
2019-04-10T06:06:32.526Z,13.2
2019-04-10T06:11:42.926Z,13.4
2019-04-10T06:16:42.574Z,13.7
2019-04-10T06:21:50.375Z,14.1
2019-04-10T06:26:53.805Z,14.6
2019-04-10T06:31:58.988Z,14.6
2019-04-10T06:37:06.110Z,15.4
2019-04-10T06:42:16.223Z,15.8
2019-04-10T06:47:24.295Z,16
2019-04-10T06:52:28.968Z,16.3
2019-04-10T06:57:56.117Z,16.2
2019-04-10T07:02:46.272Z,16.4
2019-04-10T07:08:18.963Z,16.4
2019-04-10T07:12:56.523Z,16.6
2019-04-10T07:18:04.058Z,16.6
2019-04-10T07:23:11.651Z,16.6
2019-04-10T07:28:15.341Z,16.6
2019-04-10T07:33:22.860Z,16.2
2019-04-10T07:38:28.785Z,16
2019-04-10T07:43:34.302Z,16
2019-04-10T07:48:39.465Z,15.9
2019-04-10T07:53:46.957Z,16.2
2019-04-10T07:58:55.845Z,16.3
2019-04-10T08:04:01.852Z,16.3
2019-04-10T08:09:08.262Z,16.3
2019-04-10T08:14:16.780Z,16.4
2019-04-10T08:19:21.748Z,16.5
2019-04-10T08:24:30.214Z,16.6
2019-04-10T08:29:39.300Z,16.7
2019-04-10T08:34:46.232Z,16.7
2019-04-10T08:39:54.746Z,16.8
2019-04-10T08:44:52.067Z,16.8
2019-04-10T08:49:59.260Z,16.5
2019-04-10T08:55:07.887Z,16.7
2019-04-10T09:00:05.724Z,16.9
2019-04-10T09:05:13.205Z,16.8
2019-04-10T09:10:22.577Z,17
2019-04-10T09:15:27.906Z,17
2019-04-10T09:20:36.134Z,18
2019-04-10T09:25:43.364Z,18.6
2019-04-10T09:30:51.212Z,19
2019-04-10T09:35:58.186Z,19.6
2019-04-10T09:41:05.602Z,20.2
2019-04-10T09:46:13.796Z,21.4
2019-04-10T09:51:23.457Z,22.1
2019-04-10T09:56:22.401Z,21.9
2019-04-10T10:01:30.268Z,21.4
2019-04-10T10:06:40.241Z,20.8
2019-04-10T10:11:49.122Z,20.8
2019-04-10T10:16:54.378Z,20.8
2019-04-10T10:22:06.387Z,20.5
2019-04-10T10:27:03.943Z,20.5
2019-04-10T10:32:10.872Z,23.3
2019-04-10T10:37:19.606Z,24.8
2019-04-10T10:42:25.471Z,25.5
2019-04-10T10:47:32.532Z,26.1
2019-04-10T10:52:38.088Z,28.2
2019-04-10T10:57:45.408Z,28.6
2019-04-10T11:02:51.859Z,28.9
2019-04-10T11:07:59.751Z,29.7
2019-04-10T11:13:06.466Z,29.7
2019-04-10T11:18:15.754Z,30.2
2019-04-10T11:23:22.114Z,29.7
2019-04-10T11:30:32.478Z,30.2
2019-04-10T11:33:30.622Z,29.7
2019-04-10T11:38:39.794Z,29.7
2019-04-10T11:43:41.311Z,30.1
2019-04-10T11:48:46.883Z,29.9
2019-04-10T11:53:56.384Z,29.8
2019-04-10T11:59:01.490Z,29.8
2019-04-10T12:14:17.558Z,33.2
2019-04-10T12:19:28.935Z,32.8
2019-04-10T12:24:25.965Z,31.7
2019-04-10T12:29:32.992Z,30.9
2019-04-10T12:34:37.921Z,30.8
2019-04-10T12:44:45.347Z,27.9
2019-04-10T12:49:53.726Z,26.6
2019-04-10T12:55:03.834Z,24.9
2019-04-10T13:00:11.707Z,23.9
2019-04-10T13:05:25.565Z,23.3
2019-04-10T13:10:23.150Z,23.2
2019-04-10T13:15:31.752Z,23.7
2019-04-10T13:20:37.826Z,23.7
2019-04-10T13:26:00.702Z,23.3
2019-04-10T13:30:58.394Z,23.1
2019-04-10T13:41:03.955Z,23.5
2019-04-10T13:46:12.875Z,23.4
2019-04-10T13:51:18.031Z,23.4
2019-04-10T13:56:26.309Z,23.3
2019-04-10T14:01:33.603Z,22.9
2019-04-10T14:06:40.032Z,22.9
2019-04-10T14:11:46.794Z,22.2
2019-04-10T14:16:50.988Z,22
2019-04-10T14:21:59.624Z,22.2
2019-04-10T14:27:00.084Z,22
2019-04-10T14:32:07.088Z,22
2019-04-10T14:37:14.616Z,22
2019-04-10T14:42:20.318Z,22.1
2019-04-10T14:47:27.564Z,22.1
2019-04-10T14:52:34.929Z,22.1
2019-04-10T14:57:43.233Z,22
2019-04-10T15:02:50.696Z,22
2019-04-10T15:07:59.472Z,21.7
2019-04-10T15:13:16.183Z,21.5
2019-04-10T15:17:58.165Z,21.4
2019-04-10T15:23:04.991Z,21.3
2019-04-10T15:28:08.394Z,21.4
2019-04-10T15:33:15.222Z,21.2
2019-04-10T15:38:24.050Z,21.1
2019-04-10T15:43:26.158Z,20.8
2019-04-10T15:48:25.010Z,20.7
2019-04-10T15:53:32.233Z,20.6
2019-04-10T15:58:37.503Z,20.5
2019-04-10T16:03:42.839Z,20.2
2019-04-10T16:08:52.379Z,20.2
2019-04-10T16:14:00.985Z,20.1
2019-04-10T16:19:08.142Z,20.1
2019-04-10T16:24:16.352Z,20
2019-04-10T16:29:20.199Z,19.8
2019-04-10T16:34:27.837Z,19.7
2019-04-10T16:39:36.132Z,19.6
2019-04-10T16:44:37.230Z,19.4
2019-04-10T16:49:46.773Z,19.3
2019-04-10T16:54:47.215Z,19.2
2019-04-10T16:59:55.793Z,19
2019-04-10T17:05:03.894Z,18.8
2019-04-10T17:10:29.084Z,18.6
2019-04-10T17:15:19.745Z,18.3
2019-04-10T17:20:28.653Z,18.1
2019-04-10T17:25:30.469Z,18
2019-04-10T17:35:41.881Z,17.9
2019-04-10T17:41:00.349Z,17.8
2019-04-10T17:45:50.938Z,17.7
2019-04-10T17:50:58.435Z,17.7
2019-04-10T17:56:02.079Z,17.6
2019-04-10T18:01:10.344Z,17.6
2019-04-10T18:11:24.447Z,17.5
2019-04-10T18:16:30.686Z,17.4
2019-04-10T18:21:37.072Z,17.3
2019-04-10T18:26:45.733Z,17.3
2019-04-10T18:31:47.242Z,17.2
2019-04-10T18:42:03.410Z,17.1
2019-04-10T18:47:00.658Z,17
2019-04-10T18:52:10.878Z,16.7
2019-04-10T18:57:09.363Z,16.5
2019-04-10T19:02:17.841Z,16.3
2019-04-10T19:07:17.345Z,16.1
2019-04-10T19:12:22.834Z,16
2019-04-10T19:17:29.296Z,15.9
2019-04-10T19:22:37.930Z,15.7
2019-04-10T19:27:46.438Z,15.7
2019-04-10T19:32:54.991Z,15.7
2019-04-10T19:38:00.891Z,15.6
2019-04-10T19:48:13.165Z,15.7
2019-04-10T19:53:21.315Z,15.6
2019-04-10T19:58:26.003Z,15.5
2019-04-10T20:03:35.381Z,15.3
2019-04-10T20:08:43.875Z,15.2
2019-04-10T20:13:52.197Z,15.1
2019-04-10T20:18:59.177Z,15
2019-04-10T20:24:06.684Z,14.8
2019-04-10T20:29:15.020Z,14.8
2019-04-10T20:34:13.621Z,14.7
2019-04-10T20:39:19.137Z,14.6
2019-04-10T20:44:28.950Z,14.5
2019-04-10T20:49:36.493Z,14.5
2019-04-10T20:54:43.210Z,14.5
2019-04-10T20:59:50.928Z,14.5
2019-04-10T21:05:10.013Z,14.5
2019-04-10T21:10:01.735Z,14.5
2019-04-10T21:15:07.337Z,14.4
2019-04-10T21:20:15.905Z,14.4
2019-04-10T21:25:25.254Z,14.4
2019-04-10T21:30:33.906Z,14.4
2019-04-10T21:35:41.437Z,14.4
2019-04-10T21:40:49.275Z,14.3
2019-04-10T21:45:55.349Z,14.3
2019-04-10T21:51:04.622Z,14.1
2019-04-10T21:56:13.523Z,14
2019-04-10T22:01:19.846Z,13.9
2019-04-10T22:06:25.956Z,13.6
2019-04-10T22:11:33.996Z,13.4
2019-04-10T22:16:40.071Z,13.2
2019-04-10T22:21:48.142Z,13
2019-04-10T22:26:56.470Z,12.7
2019-04-10T22:32:06.278Z,12.5
2019-04-10T22:37:15.309Z,12.3
2019-04-10T22:42:12.932Z,12.1
2019-04-10T22:47:19.974Z,12.1
2019-04-10T22:52:28.177Z,12
2019-04-10T22:57:36.703Z,12
2019-04-10T23:02:37.385Z,12
2019-04-10T23:07:43.066Z,12
2019-04-10T23:13:07.084Z,11.8
2019-04-10T23:17:54.985Z,11.8
2019-04-10T23:23:02.948Z,11.7
2019-04-10T23:28:11.452Z,11.7
2019-04-10T23:33:20.728Z,11.6
2019-04-10T23:38:27.568Z,11.5
2019-04-10T23:43:33.304Z,11.4
2019-04-10T23:48:41.163Z,11.2
2019-04-10T23:53:48.879Z,11.2
2019-04-10T23:58:58.171Z,11.2
